Time;durP1;ratioP1;P1;durP2;ratioP2;P2;SDS_P1;SDS_P2;PMS_P1;PMS_P2;Temp;Humidity;BMP_temperature;BMP_pressure;BME280_temperature;BME280_humidity;BME280_pressure;Samples;Min_cycle;Max_cycle;Signal;HPM_P1;HPM_P2
2022/06/12 00:02:07;;;;;;;8.65;2.72;;;15.30;93.30;;;;;;5064093;28;20713;-43
2022/06/12 00:04:34;;;;;;;11.45;3.50;;;15.30;93.30;;;;;;5069085;28;20131;-43
2022/06/12 00:07:00;;;;;;;10.65;2.67;;;15.30;93.30;;;;;;5065062;28;20095;-42
2022/06/12 00:09:27;;;;;;;11.40;3.60;;;15.20;93.30;;;;;;5071675;28;20052;-43
2022/06/12 00:11:54;;;;;;;12.80;3.20;;;15.20;93.60;;;;;;5083244;28;20048;-42
2022/06/12 00:14:21;;;;;;;12.07;2.97;;;15.20;93.50;;;;;;5077554;28;20076;-42
2022/06/12 00:16:52;;;;;;;11.60;3.20;;;15.10;93.60;;;;;;5053895;28;20053;-43
2022/06/12 00:19:20;;;;;;;11.10;3.58;;;15.10;93.80;;;;;;5066828;28;20055;-43
2022/06/12 00:21:47;;;;;;;10.73;3.25;;;15.10;93.70;;;;;;5066129;28;20052;-43
2022/06/12 00:24:16;;;;;;;10.45;3.28;;;15.00;93.80;;;;;;5054359;28;20049;-43
2022/06/12 00:26:44;;;;;;;8.95;2.67;;;15.00;93.70;;;;;;5085893;28;20090;-43
2022/06/12 00:29:12;;;;;;;7.45;2.55;;;15.00;93.80;;;;;;5070885;28;20398;-43
2022/06/12 00:31:41;;;;;;;11.10;2.83;;;14.90;93.80;;;;;;5062950;28;20053;-43
2022/06/12 00:34:08;;;;;;;8.65;3.00;;;14.90;93.90;;;;;;5056714;28;20405;-43
2022/06/12 00:36:36;;;;;;;12.27;3.10;;;14.90;94.00;;;;;;5057299;28;20076;-43
2022/06/12 00:39:04;;;;;;;13.38;3.22;;;14.90;94.20;;;;;;5061885;28;20075;-42
2022/06/12 00:41:31;;;;;;;8.85;2.70;;;14.80;94.20;;;;;;5067896;28;20084;-43
2022/06/12 00:43:57;;;;;;;10.10;2.42;;;14.80;94.30;;;;;;5063124;28;20131;-43
2022/06/12 00:46:43;;;;;;;12.30;3.00;;;14.80;94.30;;;;;;5062758;28;20049;-43
2022/06/12 00:49:11;;;;;;;12.80;2.80;;;14.70;94.30;;;;;;5064240;28;20519;-43
2022/06/12 00:51:39;;;;;;;12.73;2.53;;;14.70;94.70;;;;;;5067190;28;20087;-43
2022/06/12 00:54:06;;;;;;;9.15;2.67;;;14.70;94.70;;;;;;5054597;28;20122;-43
2022/06/12 00:56:35;;;;;;;8.23;2.70;;;14.60;94.70;;;;;;5053643;28;20811;-43
2022/06/12 00:59:03;;;;;;;8.30;2.60;;;14.60;94.80;;;;;;5062440;28;20073;-43
2022/06/12 01:01:32;;;;;;;10.95;2.53;;;14.50;94.90;;;;;;5052278;28;20477;-43
2022/06/12 01:06:45;;;;;;;8.88;2.55;;;14.50;95.20;;;;;;5063089;28;20078;-43
2022/06/12 01:09:14;;;;;;;9.18;2.55;;;14.50;95.00;;;;;;5067636;28;20518;-43
2022/06/12 01:11:42;;;;;;;8.30;2.35;;;14.50;95.20;;;;;;5053707;28;20136;-42
2022/06/12 01:14:10;;;;;;;6.47;2.25;;;14.40;94.90;;;;;;5054443;28;20060;-42
2022/06/12 01:16:39;;;;;;;6.68;2.53;;;14.40;94.80;;;;;;5057209;28;20113;-43
2022/06/12 01:19:05;;;;;;;9.25;2.47;;;14.40;94.80;;;;;;5065281;28;20061;-43
2022/06/12 01:22:02;;;;;;;7.80;2.42;;;14.30;94.70;;;;;;5054148;28;20080;-42
2022/06/12 01:24:39;;;;;;;5.47;1.92;;;14.30;94.50;;;;;;5056775;28;20075;-43
2022/06/12 01:27:34;;;;;;;8.45;2.38;;;14.30;94.60;;;;;;5060059;28;21330;-42
2022/06/12 01:30:06;;;;;;;7.78;2.10;;;14.30;94.80;;;;;;5060748;28;20726;-42
2022/06/12 01:32:34;;;;;;;10.38;2.63;;;14.20;95.10;;;;;;5054670;28;20080;-43
2022/06/12 01:35:05;;;;;;;7.70;2.35;;;14.20;95.40;;;;;;5056105;28;20477;-43
2022/06/12 01:37:37;;;;;;;8.00;2.20;;;14.20;95.30;;;;;;5052766;28;20098;-42
2022/06/12 01:40:09;;;;;;;10.15;2.30;;;14.20;95.40;;;;;;5071511;28;20048;-43
2022/06/12 01:42:39;;;;;;;6.15;2.03;;;14.10;95.20;;;;;;5059123;28;20052;-42
2022/06/12 01:45:14;;;;;;;7.18;2.00;;;14.10;95.10;;;;;;5059761;28;20129;-43
2022/06/12 01:47:50;;;;;;;12.27;2.53;;;14.10;95.10;;;;;;5060082;28;20117;-42
2022/06/12 01:50:19;;;;;;;9.90;2.33;;;14.10;95.30;;;;;;5061932;28;20075;-42
2022/06/12 01:52:52;;;;;;;7.32;2.20;;;14.00;95.50;;;;;;5060690;28;20136;-43
2022/06/12 01:55:23;;;;;;;10.00;2.28;;;14.00;95.50;;;;;;5052726;28;20137;-42
2022/06/12 01:57:54;;;;;;;8.95;2.17;;;14.00;95.40;;;;;;5055341;28;20083;-42
2022/06/12 02:00:24;;;;;;;6.60;1.90;;;14.00;95.50;;;;;;5065437;28;20109;-42
2022/06/12 02:02:52;;;;;;;7.20;1.88;;;14.00;95.40;;;;;;5070678;28;20801;-43
2022/06/12 02:05:22;;;;;;;7.93;2.53;;;13.90;95.30;;;;;;5071836;28;20374;-42
2022/06/12 02:07:51;;;;;;;6.50;2.33;;;13.90;95.20;;;;;;5070978;28;20174;-42
2022/06/12 02:10:20;;;;;;;8.48;2.58;;;13.90;95.10;;;;;;5060808;28;20074;-43
2022/06/12 02:15:38;;;;;;;9.77;2.42;;;13.90;95.80;;;;;;5058634;28;20044;-42
2022/06/12 02:18:06;;;;;;;7.90;2.33;;;13.80;95.70;;;;;;5050029;28;20136;-42
2022/06/12 02:20:35;;;;;;;13.45;2.80;;;13.80;95.70;;;;;;5055265;28;20115;-42
2022/06/12 02:23:03;;;;;;;5.32;1.98;;;13.80;96.00;;;;;;5058856;28;20080;-42
2022/06/12 02:25:31;;;;;;;9.80;2.40;;;13.80;96.00;;;;;;5063408;28;20051;-43
2022/06/12 02:28:01;;;;;;;7.75;2.33;;;13.70;95.90;;;;;;5055412;28;20547;-43
2022/06/12 02:30:30;;;;;;;10.68;2.42;;;13.70;95.90;;;;;;5055775;28;20049;-42
2022/06/12 02:33:00;;;;;;;9.75;3.05;;;13.70;95.80;;;;;;5058114;28;20446;-42
2022/06/12 02:35:29;;;;;;;10.43;2.38;;;13.70;96.40;;;;;;5050408;28;20041;-43
2022/06/12 02:37:59;;;;;;;14.55;2.58;;;13.60;96.10;;;;;;5057188;28;20961;-42
2022/06/12 02:40:29;;;;;;;10.15;2.58;;;13.60;96.60;;;;;;5058140;28;20131;-43
2022/06/12 02:42:55;;;;;;;7.95;2.45;;;13.60;96.40;;;;;;5052650;28;20045;-42
2022/06/12 02:45:25;;;;;;;12.45;2.55;;;13.60;96.60;;;;;;5068044;28;20055;-42
2022/06/12 02:47:52;;;;;;;9.40;2.92;;;13.60;96.50;;;;;;5065878;28;20083;-42
2022/06/12 02:50:22;;;;;;;9.93;2.67;;;13.50;96.70;;;;;;5056905;28;20106;-42
2022/06/12 02:52:52;;;;;;;10.13;3.28;;;13.50;96.70;;;;;;5067296;28;20049;-42
2022/06/12 02:55:24;;;;;;;11.90;3.40;;;13.50;97.10;;;;;;5056798;28;20132;-42
2022/06/12 02:57:55;;;;;;;7.53;2.83;;;13.50;97.50;;;;;;5049829;28;20475;-43
2022/06/12 03:00:25;;;;;;;8.15;2.63;;;13.50;97.50;;;;;;5053343;28;20049;-42
2022/06/12 03:02:54;;;;;;;9.57;2.97;;;13.40;97.40;;;;;;5055226;28;20079;-42
2022/06/12 03:05:24;;;;;;;10.43;3.00;;;13.40;97.20;;;;;;5060987;28;20397;-42
2022/06/12 03:07:53;;;;;;;9.57;2.40;;;13.40;97.50;;;;;;5055702;28;20045;-42
2022/06/12 03:10:23;;;;;;;11.45;3.60;;;13.30;97.40;;;;;;5055604;28;20060;-42
2022/06/12 03:12:50;;;;;;;11.50;2.97;;;13.40;97.40;;;;;;5065570;28;20084;-42
2022/06/12 03:15:39;;;;;;;10.45;2.92;;;13.30;97.70;;;;;;5067775;28;20048;-42
2022/06/12 03:18:08;;;;;;;12.70;3.40;;;13.30;97.80;;;;;;5057647;28;20468;-42
2022/06/12 03:20:41;;;;;;;10.50;3.08;;;13.30;98.00;;;;;;5051896;28;20040;-42
2022/06/12 03:23:12;;;;;;;10.85;3.15;;;13.20;98.80;;;;;;5051778;28;20604;-44
2022/06/12 03:25:42;;;;;;;13.13;3.25;;;13.20;98.50;;;;;;5063022;28;20122;-43
2022/06/12 03:28:12;;;;;;;15.57;4.70;;;13.20;98.50;;;;;;5061366;28;21293;-42
2022/06/12 03:30:41;;;;;;;10.93;3.60;;;13.10;99.20;;;;;;5059794;28;20129;-42
2022/06/12 03:33:12;;;;;;;13.57;3.30;;;13.10;98.90;;;;;;5053425;28;20584;-42
2022/06/12 03:35:54;;;;;;;11.70;3.23;;;13.20;98.90;;;;;;5056469;28;20396;-43
2022/06/12 03:38:23;;;;;;;;;;;13.10;98.70;;;;;;5057964;28;20373;-42
2022/06/12 03:40:53;;;;;;;14.35;3.72;;;13.00;97.90;;;;;;5049067;28;20016;-42
2022/06/12 03:43:26;;;;;;;12.95;3.03;;;13.10;99.10;;;;;;5052097;28;20168;-42
2022/06/12 03:45:58;;;;;;;12.68;3.38;;;13.10;99.20;;;;;;5052325;28;20135;-42
2022/06/12 03:48:27;;;;;;;11.23;3.33;;;13.10;99.40;;;;;;5064285;28;20045;-42
2022/06/12 03:51:03;;;;;;;14.23;3.20;;;13.10;99.50;;;;;;5058919;28;20123;-42
2022/06/12 03:53:34;;;;;;;17.80;3.38;;;13.00;99.40;;;;;;5059340;28;20090;-43
2022/06/12 03:58:48;;;;;;;13.63;3.30;;;13.00;99.20;;;;;;5062742;28;20791;-43
2022/06/12 04:01:15;;;;;;;8.32;2.47;;;13.10;99.30;;;;;;5057669;28;20111;-43
2022/06/12 04:03:43;;;;;;;14.43;3.45;;;13.10;99.50;;;;;;5068235;28;20542;-43
2022/06/12 04:06:13;;;;;;;11.95;2.72;;;13.10;99.70;;;;;;5059800;28;20088;-43
2022/06/12 04:08:42;;;;;;;13.63;3.55;;;13.10;99.60;;;;;;5058528;28;20049;-42
2022/06/12 04:11:09;;;;;;;11.88;3.13;;;13.10;99.70;;;;;;5056622;28;20139;-42
2022/06/12 04:13:37;;;;;;;11.27;3.15;;;13.10;99.70;;;;;;5057941;28;20139;-42
2022/06/12 04:16:05;;;;;;;11.20;3.10;;;13.10;99.60;;;;;;5060989;28;20140;-42
2022/06/12 04:18:32;;;;;;;12.55;2.83;;;13.10;99.70;;;;;;5061903;28;20075;-42
2022/06/12 04:21:00;;;;;;;10.52;3.13;;;13.20;99.70;;;;;;5054361;28;20135;-42
2022/06/12 04:23:39;;;;;;;10.45;2.92;;;13.20;99.90;;;;;;5060246;28;21076;-42
2022/06/12 04:26:10;;;;;;;11.27;3.42;;;13.20;99.90;;;;;;5059011;28;20076;-42
2022/06/12 04:28:38;;;;;;;13.13;3.47;;;13.20;99.90;;;;;;5053316;28;20152;-42
2022/06/12 04:31:14;;;;;;;10.15;2.95;;;13.20;99.90;;;;;;5057605;28;20132;-42
2022/06/12 04:33:47;;;;;;;19.48;3.05;;;13.20;99.90;;;;;;5060529;28;20125;-42
2022/06/12 04:36:14;;;;;;;14.65;3.55;;;13.20;99.90;;;;;;5055244;28;20107;-42
2022/06/12 04:38:43;;;;;;;10.50;3.15;;;13.20;99.90;;;;;;5058068;28;20052;-43
2022/06/12 04:41:12;;;;;;;12.65;3.67;;;13.30;99.90;;;;;;5058867;28;20083;-42
2022/06/12 04:43:39;;;;;;;16.17;4.13;;;13.30;99.90;;;;;;5058021;28;20064;-43
2022/06/12 04:46:06;;;;;;;14.65;3.25;;;13.30;99.90;;;;;;5052510;28;20060;-42
2022/06/12 04:48:36;;;;;;;18.35;3.40;;;13.30;99.90;;;;;;5065992;28;20053;-42
2022/06/12 04:51:02;;;;;;;18.10;3.50;;;13.40;99.90;;;;;;5073369;28;20166;-42
2022/06/12 04:53:29;;;;;;;14.25;3.40;;;13.40;99.90;;;;;;5053617;28;20063;-42
2022/06/12 04:55:57;;;;;;;14.18;3.13;;;13.40;99.90;;;;;;5053736;28;20126;-42
2022/06/12 04:58:24;;;;;;;15.70;3.90;;;13.50;99.90;;;;;;5054174;28;20570;-43
2022/06/12 05:00:52;;;;;;;13.43;3.40;;;13.50;99.90;;;;;;5055643;28;20072;-42
2022/06/12 05:03:19;;;;;;;16.88;3.50;;;13.60;99.90;;;;;;5060650;28;20146;-42
2022/06/12 05:05:47;;;;;;;15.27;2.78;;;13.70;99.90;;;;;;5055150;28;20489;-43
2022/06/12 05:08:14;;;;;;;15.90;3.72;;;13.70;99.90;;;;;;5051208;28;20055;-42
2022/06/12 05:10:41;;;;;;;15.73;3.10;;;13.80;99.90;;;;;;5055998;28;20521;-43
2022/06/12 05:13:09;;;;;;;14.75;3.15;;;13.80;99.90;;;;;;5063065;28;20084;-42
2022/06/12 05:15:36;;;;;;;19.05;3.58;;;13.90;99.90;;;;;;5064644;28;20111;-42
2022/06/12 05:18:03;;;;;;;12.88;2.80;;;14.00;99.90;;;;;;5051874;28;20127;-43
2022/06/12 05:20:31;;;;;;;19.63;3.97;;;14.10;99.90;;;;;;5058278;28;20057;-42
2022/06/12 05:22:58;;;;;;;17.80;3.67;;;14.20;99.90;;;;;;5064749;28;20094;-43
2022/06/12 05:25:24;;;;;;;17.55;2.97;;;14.30;99.90;;;;;;5059474;28;20078;-42
2022/06/12 05:27:51;;;;;;;18.85;3.47;;;14.40;99.90;;;;;;5052732;28;20072;-43
2022/06/12 05:30:21;;;;;;;16.38;3.55;;;14.50;99.90;;;;;;5055202;28;20136;-43
2022/06/12 05:32:48;;;;;;;16.60;3.50;;;14.60;99.90;;;;;;5053583;28;20128;-44
2022/06/12 05:35:15;;;;;;;16.58;3.70;;;14.70;99.90;;;;;;5056457;28;20061;-41
2022/06/12 05:37:42;;;;;;;14.48;3.30;;;14.90;99.90;;;;;;5056460;28;20051;-43
2022/06/12 05:40:13;;;;;;;16.27;3.63;;;15.00;99.90;;;;;;5049443;28;20049;-43
2022/06/12 05:42:40;;;;;;;27.60;4.20;;;15.10;99.90;;;;;;5057381;28;20087;-43
2022/06/12 05:45:08;;;;;;;17.20;3.85;;;15.20;99.90;;;;;;5055916;28;20250;-43
2022/06/12 05:47:43;;;;;;;13.20;3.13;;;15.30;99.90;;;;;;5066982;28;20123;-43
2022/06/12 05:50:11;;;;;;;14.68;3.80;;;15.40;99.90;;;;;;5065455;28;20197;-43
2022/06/12 05:52:37;;;;;;;15.63;3.47;;;15.50;99.90;;;;;;5053169;28;20044;-42
2022/06/12 05:55:05;;;;;;;21.13;3.35;;;15.60;99.90;;;;;;5073398;28;20058;-43
2022/06/12 05:57:32;;;;;;;12.93;3.10;;;15.80;99.90;;;;;;5063242;28;20869;-43
2022/06/12 05:59:58;;;;;;;20.25;3.90;;;15.90;99.90;;;;;;5050531;28;20131;-43
2022/06/12 06:02:25;;;;;;;23.27;3.78;;;16.00;99.90;;;;;;5054959;28;20049;-43
2022/06/12 06:04:53;;;;;;;17.88;3.97;;;16.20;99.90;;;;;;5061961;28;20536;-43
2022/06/12 06:07:20;;;;;;;20.27;4.28;;;16.30;99.90;;;;;;5050902;28;20080;-43
2022/06/12 06:09:47;;;;;;;17.75;4.18;;;16.30;99.90;;;;;;5053137;28;20053;-43
2022/06/12 06:12:14;;;;;;;18.33;3.78;;;16.40;99.90;;;;;;5065848;28;20143;-43
2022/06/12 06:14:40;;;;;;;21.60;3.85;;;16.40;99.90;;;;;;5062286;28;20473;-43
2022/06/12 06:17:07;;;;;;;19.55;3.80;;;16.50;99.90;;;;;;5054813;28;20052;-44
2022/06/12 06:19:34;;;;;;;17.23;3.67;;;16.60;99.90;;;;;;5067868;28;20125;-44
2022/06/12 06:22:02;;;;;;;16.35;3.42;;;16.70;99.90;;;;;;5052253;28;20052;-43
2022/06/12 06:24:29;;;;;;;15.60;3.55;;;16.80;99.90;;;;;;5055445;28;21212;-43
2022/06/12 06:26:56;;;;;;;13.77;3.65;;;16.90;99.90;;;;;;5069741;28;20111;-43
2022/06/12 06:29:23;;;;;;;21.27;4.35;;;17.20;99.90;;;;;;5060545;28;20091;-42
2022/06/12 06:31:49;;;;;;;16.17;4.00;;;17.30;99.90;;;;;;5053868;28;20059;-43
2022/06/12 06:34:16;;;;;;;27.20;5.88;;;17.40;99.90;;;;;;5054869;28;20084;-43
2022/06/12 06:36:43;;;;;;;19.42;4.32;;;17.50;99.90;;;;;;5052364;28;20076;-44
2022/06/12 06:39:11;;;;;;;19.17;4.10;;;17.60;99.90;;;;;;5051264;28;20091;-42
2022/06/12 06:41:38;;;;;;;21.75;4.32;;;17.80;99.90;;;;;;5060555;28;20112;-43
2022/06/12 06:46:49;;;;;;;21.73;4.40;;;17.90;99.90;;;;;;5058603;28;20045;-43
2022/06/12 06:49:16;;;;;;;20.88;4.28;;;18.10;99.90;;;;;;5062563;28;20437;-42
2022/06/12 06:51:43;;;;;;;25.20;5.22;;;18.20;99.90;;;;;;5064592;28;20460;-42
2022/06/12 06:54:11;;;;;;;20.73;4.32;;;18.30;99.80;;;;;;5056781;28;20052;-43
2022/06/12 06:56:37;;;;;;;23.75;4.72;;;18.40;99.70;;;;;;5063051;28;20075;-43
2022/06/12 06:59:10;;;;;;;23.73;4.18;;;18.60;99.60;;;;;;5055136;28;20200;-42
2022/06/12 07:01:36;;;;;;;19.35;4.38;;;18.70;99.30;;;;;;5051778;28;20061;-43
2022/06/12 07:04:03;;;;;;;15.02;4.00;;;18.80;99.30;;;;;;5060799;28;20132;-42
2022/06/12 07:06:31;;;;;;;26.00;4.90;;;18.90;99.20;;;;;;5059651;28;20044;-43
2022/06/12 07:08:58;;;;;;;15.43;4.30;;;19.00;99.00;;;;;;5055914;28;20045;-43
2022/06/12 07:11:26;;;;;;;21.33;4.68;;;19.10;98.70;;;;;;5058273;28;20044;-43
2022/06/12 07:13:53;;;;;;;21.25;4.43;;;19.30;98.60;;;;;;5051791;28;20076;-43
2022/06/12 07:16:20;;;;;;;19.58;4.60;;;19.40;98.70;;;;;;5051808;28;20463;-43
2022/06/12 07:18:47;;;;;;;18.15;4.03;;;19.50;98.50;;;;;;5054166;28;20121;-43
2022/06/12 07:21:15;;;;;;;19.40;4.55;;;19.70;98.30;;;;;;5052033;28;20374;-43
2022/06/12 07:23:42;;;;;;;18.75;4.55;;;19.90;98.00;;;;;;5057975;28;20041;-43
2022/06/12 07:26:10;;;;;;;18.70;3.88;;;19.90;97.70;;;;;;5053999;28;20045;-43
2022/06/12 07:28:39;;;;;;;19.65;4.68;;;20.00;97.60;;;;;;5059564;28;20143;-43
2022/06/12 07:31:06;;;;;;;19.77;4.35;;;20.20;97.40;;;;;;5052871;28;20136;-43
2022/06/12 07:33:33;;;;;;;21.75;5.82;;;20.20;97.20;;;;;;5061497;28;20114;-43
2022/06/12 07:35:59;;;;;;;26.73;5.22;;;20.30;97.00;;;;;;5059829;28;20102;-44
2022/06/12 07:38:27;;;;;;;24.08;4.78;;;20.40;96.70;;;;;;5058323;28;20053;-44
2022/06/12 07:40:57;;;;;;;22.67;4.13;;;20.50;96.50;;;;;;5055519;28;20107;-43
2022/06/12 07:43:24;;;;;;;22.55;4.63;;;20.70;96.30;;;;;;5056607;28;20053;-43
2022/06/12 07:45:53;;;;;;;22.00;4.38;;;20.90;96.00;;;;;;5034923;28;20056;-43
2022/06/12 07:48:19;;;;;;;20.30;4.60;;;21.00;95.60;;;;;;5058909;28;20094;-43
2022/06/12 07:50:47;;;;;;;21.02;4.13;;;21.00;95.20;;;;;;5057522;28;20127;-43
2022/06/12 07:53:14;;;;;;;17.05;3.88;;;21.00;95.00;;;;;;5058202;28;20106;-44
2022/06/12 07:55:41;;;;;;;17.33;4.80;;;20.90;95.20;;;;;;5054263;28;20080;-42
2022/06/12 07:58:09;;;;;;;14.90;4.18;;;20.90;95.20;;;;;;5054981;28;20531;-43
2022/06/12 08:00:36;;;;;;;20.80;4.35;;;21.10;95.10;;;;;;5053203;28;20061;-43
2022/06/12 08:03:05;;;;;;;24.00;4.47;;;21.30;94.90;;;;;;5055341;28;20053;-44
2022/06/12 08:05:32;;;;;;;19.55;4.13;;;21.40;94.60;;;;;;5059221;28;20052;-44
2022/06/12 08:07:59;;;;;;;18.30;4.32;;;21.60;94.60;;;;;;5057935;28;20095;-44
2022/06/12 08:10:26;;;;;;;19.88;3.80;;;21.80;94.50;;;;;;5060444;28;20576;-44
2022/06/12 08:12:54;;;;;;;16.70;4.18;;;22.00;94.10;;;;;;5082087;28;20098;-44
2022/06/12 08:15:23;;;;;;;20.77;4.40;;;22.10;93.50;;;;;;5064442;28;20048;-44
2022/06/12 08:17:50;;;;;;;18.90;4.88;;;22.20;93.40;;;;;;5060188;28;20049;-45
2022/06/12 08:20:28;;;;;;;20.58;4.80;;;22.30;93.00;;;;;;5071306;28;20579;-43
2022/06/12 08:22:57;;;;;;;18.08;4.60;;;22.30;92.70;;;;;;5055610;28;20466;-44
2022/06/12 08:25:24;;;;;;;20.23;4.38;;;22.40;92.70;;;;;;5060941;28;20072;-43
2022/06/12 08:27:51;;;;;;;22.52;4.90;;;22.50;92.70;;;;;;5059899;28;20127;-43
2022/06/12 08:30:18;;;;;;;16.35;4.07;;;22.60;92.60;;;;;;5064295;28;20040;-45
2022/06/12 08:32:46;;;;;;;18.25;3.70;;;22.70;92.40;;;;;;5062457;28;20090;-44
2022/06/12 08:35:15;;;;;;;16.00;3.97;;;22.90;92.30;;;;;;5058159;28;20143;-44
2022/06/12 08:37:43;;;;;;;16.65;4.25;;;23.00;92.20;;;;;;5053441;28;20076;-43
2022/06/12 08:40:14;;;;;;;17.90;4.13;;;23.00;91.90;;;;;;5053794;28;20111;-43
2022/06/12 08:42:45;;;;;;;19.38;3.55;;;23.00;91.80;;;;;;5064451;28;20080;-44
2022/06/12 08:45:14;;;;;;;16.23;4.25;;;23.00;91.90;;;;;;5053193;28;20076;-44
2022/06/12 08:47:43;;;;;;;27.13;4.70;;;23.00;91.70;;;;;;5066969;28;20044;-43
2022/06/12 08:50:13;;;;;;;18.45;4.00;;;23.20;91.70;;;;;;5060773;28;20117;-44
2022/06/12 08:52:44;;;;;;;17.85;4.20;;;23.40;91.60;;;;;;5058126;28;20079;-43
2022/06/12 08:55:14;;;;;;;22.23;4.73;;;23.50;90.80;;;;;;5053807;28;20053;-43
2022/06/12 08:57:45;;;;;;;17.25;4.60;;;23.50;90.50;;;;;;5056414;28;20084;-43
2022/06/12 09:00:15;;;;;;;15.60;3.58;;;23.30;90.10;;;;;;5052097;28;20052;-43
2022/06/12 09:02:43;;;;;;;17.88;3.85;;;23.20;90.70;;;;;;5059878;28;20079;-43
2022/06/12 09:05:12;;;;;;;19.45;3.90;;;23.20;90.60;;;;;;5059361;28;20053;-43
2022/06/12 09:07:42;;;;;;;14.30;3.70;;;23.40;90.10;;;;;;5055768;28;20067;-44
2022/06/12 09:10:13;;;;;;;20.40;4.28;;;23.60;89.80;;;;;;5052190;28;20084;-43
2022/06/12 09:12:42;;;;;;;16.77;4.30;;;23.70;88.70;;;;;;5055898;28;20084;-43
2022/06/12 09:15:13;;;;;;;14.15;3.40;;;23.80;87.50;;;;;;5052988;28;20086;-44
2022/06/12 09:17:44;;;;;;;14.50;3.30;;;23.80;87.50;;;;;;5055515;28;20140;-43
2022/06/12 09:20:15;;;;;;;18.27;3.53;;;23.70;87.40;;;;;;5059282;28;20559;-43
2022/06/12 09:22:46;;;;;;;12.63;3.10;;;23.60;87.10;;;;;;5065588;28;20504;-43
2022/06/12 09:25:19;;;;;;;11.50;2.92;;;23.60;87.40;;;;;;5059170;28;20122;-43
2022/06/12 09:27:52;;;;;;;12.48;2.63;;;23.50;87.80;;;;;;5057186;28;20375;-43
2022/06/12 09:30:20;;;;;;;13.60;3.20;;;23.70;87.10;;;;;;5061545;28;20123;-43
2022/06/12 09:32:55;;;;;;;13.75;3.60;;;23.90;86.20;;;;;;5049634;28;20057;-43
2022/06/12 09:35:30;;;;;;;11.00;3.03;;;24.20;83.50;;;;;;5056875;28;20061;-43
2022/06/12 09:38:21;;;;;;;12.70;2.88;;;24.40;82.50;;;;;;5052953;28;20577;-43
2022/06/12 09:41:08;;;;;;;12.73;3.03;;;24.40;80.00;;;;;;5058731;28;20147;-43
2022/06/12 09:43:38;;;;;;;11.55;2.90;;;24.40;80.70;;;;;;5050020;28;20386;-42
2022/06/12 09:46:10;;;;;;;14.45;3.42;;;24.30;79.60;;;;;;5049408;28;20045;-43
2022/06/12 09:48:45;;;;;;;12.52;3.17;;;24.10;79.70;;;;;;5060713;28;20059;-43
2022/06/12 09:51:17;;;;;;;12.02;2.88;;;23.90;78.70;;;;;;5052619;28;20072;-43
2022/06/12 09:54:01;;;;;;;11.18;2.97;;;23.70;77.20;;;;;;5055070;28;20124;-44
2022/06/12 09:56:32;;;;;;;13.48;3.30;;;23.60;77.70;;;;;;5052908;28;20107;-43
2022/06/12 09:58:59;;;;;;;;;;;23.40;77.60;;;;;;5048498;28;20483;-44
2022/06/12 10:01:28;;;;;;;9.25;2.63;;;23.40;79.20;;;;;;5053106;28;19920;-44
2022/06/12 10:03:57;;;;;;;11.48;3.05;;;23.40;78.50;;;;;;5057004;28;20133;-43
2022/06/12 10:06:27;;;;;;;7.10;2.20;;;23.50;78.90;;;;;;5050306;28;20480;-43
2022/06/12 10:08:57;;;;;;;9.00;2.20;;;23.60;75.10;;;;;;5063973;28;20140;-44
2022/06/12 10:11:26;;;;;;;10.70;2.80;;;23.60;74.50;;;;;;5060806;28;20157;-44
2022/06/12 10:13:57;;;;;;;7.88;1.92;;;23.50;74.30;;;;;;5048781;28;20567;-43
2022/06/12 10:16:26;;;;;;;7.50;1.90;;;23.50;74.00;;;;;;5055794;28;20072;-44
2022/06/12 10:18:55;;;;;;;8.75;2.58;;;23.50;72.20;;;;;;5052727;28;20106;-43
2022/06/12 10:21:23;;;;;;;8.00;2.38;;;23.80;72.10;;;;;;5057262;28;20090;-44
2022/06/12 10:23:50;;;;;;;13.30;2.63;;;24.10;71.40;;;;;;5050045;28;20057;-44
2022/06/12 10:26:18;;;;;;;6.45;2.15;;;24.30;70.40;;;;;;5050827;28;20140;-44
2022/06/12 10:28:45;;;;;;;8.77;1.70;;;24.50;69.20;;;;;;5056190;28;20147;-44
2022/06/12 10:31:21;;;;;;;8.30;2.13;;;24.70;68.70;;;;;;5061961;28;20413;-43
2022/06/12 10:33:50;;;;;;;8.85;2.33;;;24.90;68.40;;;;;;5054548;28;20424;-44
2022/06/12 10:36:24;;;;;;;9.68;2.38;;;25.00;68.70;;;;;;5052031;28;20060;-44
2022/06/12 10:38:51;;;;;;;8.20;2.20;;;25.10;68.30;;;;;;5055316;28;20045;-43
2022/06/12 10:41:21;;;;;;;9.90;2.50;;;25.20;67.00;;;;;;5058224;28;20056;-44
2022/06/12 10:43:49;;;;;;;8.13;2.38;;;25.30;67.00;;;;;;5053283;28;20142;-44
2022/06/12 10:46:19;;;;;;;8.45;1.90;;;25.40;66.80;;;;;;5052711;28;20398;-43
2022/06/12 10:48:56;;;;;;;5.47;1.83;;;25.50;65.40;;;;;;5051851;28;20068;-43
2022/06/12 10:51:24;;;;;;;6.28;2.03;;;25.60;66.40;;;;;;5063238;28;20114;-43
2022/06/12 10:53:57;;;;;;;8.07;2.45;;;25.60;66.10;;;;;;5078776;28;20098;-44
2022/06/12 10:56:25;;;;;;;7.68;2.15;;;25.80;65.90;;;;;;5055217;28;20144;-43
2022/06/12 10:59:44;;;;;;;9.88;2.03;;;26.00;64.30;;;;;;5067832;28;20094;-44
2022/06/12 11:02:49;;;;;;;6.60;1.88;;;26.20;62.00;;;;;;4993044;28;20057;-44
2022/06/12 11:05:36;;;;;;;9.95;2.15;;;26.20;63.50;;;;;;4977856;28;20145;-44
2022/06/12 11:08:08;;;;;;;6.65;1.90;;;26.30;62.20;;;;;;5060010;28;20492;-43
2022/06/12 11:10:38;;;;;;;6.72;2.08;;;26.40;60.00;;;;;;5055157;28;20566;-43
2022/06/12 11:13:18;;;;;;;6.32;1.67;;;26.40;59.00;;;;;;5054516;28;20547;-43
2022/06/12 11:16:07;;;;;;;7.60;1.92;;;26.20;59.60;;;;;;5065193;28;20084;-43
2022/06/12 11:18:43;;;;;;;9.20;2.08;;;26.20;60.30;;;;;;4908177;22;20057;-35
2022/06/12 11:21:14;;;;;;;5.57;1.92;;;26.30;58.20;;;;;;5018834;28;20107;-35
2022/06/12 11:23:59;;;;;;;8.50;2.10;;;26.20;57.20;;;;;;5012428;28;20633;-35
2022/06/12 11:26:44;;;;;;;6.28;2.03;;;26.10;57.50;;;;;;5019018;28;20517;-35
2022/06/12 11:29:19;;;;;;;9.18;1.98;;;26.10;58.50;;;;;;5019016;28;20073;-36
2022/06/12 11:31:53;;;;;;;6.57;2.00;;;26.10;57.90;;;;;;5022155;28;20089;-37
2022/06/12 11:34:29;;;;;;;7.32;1.80;;;26.10;56.80;;;;;;5018514;28;20088;-36
2022/06/12 11:37:04;;;;;;;6.55;1.95;;;26.00;57.70;;;;;;5020920;28;20555;-36
2022/06/12 11:39:39;;;;;;;8.15;2.03;;;26.00;57.20;;;;;;5022655;28;20057;-35
2022/06/12 11:42:16;;;;;;;6.25;1.70;;;26.00;58.60;;;;;;5018806;28;20066;-36
2022/06/12 11:45:09;;;;;;;8.07;2.13;;;25.90;59.60;;;;;;5035476;28;20639;-36
2022/06/12 11:47:44;;;;;;;5.30;1.67;;;25.80;59.60;;;;;;5022319;28;20049;-36
2022/06/12 11:50:20;;;;;;;10.25;2.10;;;25.90;58.70;;;;;;5025110;28;20142;-35
2022/06/12 11:52:59;;;;;;;10.27;2.40;;;25.80;58.90;;;;;;5027665;28;20437;-37
2022/06/12 11:55:31;;;;;;;6.00;1.95;;;25.60;59.70;;;;;;5030207;28;20404;-36
2022/06/12 11:58:23;;;;;;;9.85;2.78;;;25.50;60.10;;;;;;5027740;28;20061;-36
2022/06/12 12:00:56;;;;;;;7.85;2.25;;;25.50;60.30;;;;;;5021973;28;20041;-36
2022/06/12 12:03:56;;;;;;;7.03;2.08;;;25.50;61.00;;;;;;5026779;28;20103;-36
2022/06/12 12:06:35;;;;;;;6.45;2.22;;;25.60;60.20;;;;;;5028465;28;20107;-36
2022/06/12 12:09:12;;;;;;;7.60;2.30;;;25.80;59.20;;;;;;5027310;28;20077;-35
2022/06/12 12:11:42;;;;;;;7.78;2.30;;;26.00;60.50;;;;;;5026690;28;20038;-35
2022/06/12 12:14:10;;;;;;;8.57;2.60;;;26.00;59.50;;;;;;5020525;28;20056;-35
2022/06/12 12:16:38;;;;;;;11.23;2.28;;;25.90;59.10;;;;;;5029165;28;20072;-36
2022/06/12 12:19:07;;;;;;;9.55;2.40;;;25.80;58.50;;;;;;5027886;28;20076;-36
2022/06/12 12:21:37;;;;;;;8.27;2.30;;;25.80;59.40;;;;;;5028169;28;20467;-36
2022/06/12 12:24:06;;;;;;;5.55;2.25;;;25.90;58.80;;;;;;5026642;28;22405;-36
2022/06/12 12:26:35;;;;;;;5.53;2.00;;;25.90;58.00;;;;;;5022807;28;20574;-35
2022/06/12 12:29:03;;;;;;;8.15;2.05;;;25.70;58.90;;;;;;5022198;28;20441;-36
2022/06/12 12:31:30;;;;;;;7.70;2.08;;;25.70;58.00;;;;;;5021432;28;20140;-36
2022/06/12 12:33:57;;;;;;;6.63;2.08;;;25.80;57.90;;;;;;5025194;28;20140;-37
2022/06/12 12:42:21;;;;;;;6.28;2.53;;;25.80;58.00;;;;;;5027769;28;20555;-35
2022/06/12 12:44:49;;;;;;;7.78;2.33;;;25.80;58.50;;;;;;5032062;28;20077;-36
2022/06/12 12:47:20;;;;;;;6.47;2.22;;;25.90;58.40;;;;;;5026578;28;20061;-36
2022/06/12 12:49:47;;;;;;;11.10;2.53;;;26.10;58.10;;;;;;5031819;28;20084;-36
2022/06/12 12:52:15;;;;;;;10.82;2.55;;;26.10;58.10;;;;;;5029469;28;20053;-36
2022/06/12 12:54:46;;;;;;;8.80;2.38;;;26.10;57.50;;;;;;5030924;28;20076;-34
2022/06/12 12:57:13;;;;;;;9.68;2.85;;;26.10;57.00;;;;;;5030581;28;20473;-36
2022/06/12 12:59:43;;;;;;;9.48;2.47;;;26.00;58.10;;;;;;5034241;28;20584;-36
2022/06/12 13:02:22;;;;;;;8.40;2.70;;;26.20;58.60;;;;;;5029303;28;20056;-36
2022/06/12 13:04:51;;;;;;;6.82;2.40;;;26.40;58.40;;;;;;5029407;28;20127;-36
2022/06/12 13:07:26;;;;;;;8.05;2.50;;;26.50;58.20;;;;;;5025112;28;20064;-36
2022/06/12 13:10:16;;;;;;;7.68;2.53;;;26.60;57.40;;;;;;5028431;28;20072;-36
2022/06/12 13:12:54;;;;;;;7.45;2.20;;;26.70;57.10;;;;;;5029544;28;20130;-36
2022/06/12 13:15:27;;;;;;;8.93;2.47;;;26.70;57.20;;;;;;5030041;28;20377;-35